sensor_id;sensor_type;location;lat;lon;timestamp;temperature;humidity
15341;DHT22;7770;52.158;5.372;2023-04-03T00:01:42;3.70;99.90
15341;DHT22;7770;52.158;5.372;2023-04-03T00:04:28;3.70;99.90
15341;DHT22;7770;52.158;5.372;2023-04-03T00:07:14;3.60;99.90
15341;DHT22;7770;52.158;5.372;2023-04-03T00:10:00;3.60;99.90
15341;DHT22;7770;52.158;5.372;2023-04-03T00:12:46;3.60;99.90
15341;DHT22;7770;52.158;5.372;2023-04-03T00:15:33;3.60;99.90
15341;DHT22;7770;52.158;5.372;2023-04-03T00:18:20;3.50;99.90
15341;DHT22;7770;52.158;5.372;2023-04-03T00:21:07;3.60;99.90
15341;DHT22;7770;52.158;5.372;2023-04-03T00:23:54;3.50;99.90
15341;DHT22;7770;52.158;5.372;2023-04-03T00:26:40;3.50;99.90
15341;DHT22;7770;52.158;5.372;2023-04-03T00:29:26;3.50;99.90
15341;DHT22;7770;52.158;5.372;2023-04-03T00:32:13;3.50;99.90
15341;DHT22;7770;52.158;5.372;2023-04-03T00:34:59;3.50;99.90
15341;DHT22;7770;52.158;5.372;2023-04-03T00:37:45;3.50;99.90
15341;DHT22;7770;52.158;5.372;2023-04-03T00:40:37;3.40;99.90
15341;DHT22;7770;52.158;5.372;2023-04-03T00:43:25;3.40;99.90
15341;DHT22;7770;52.158;5.372;2023-04-03T00:46:14;3.40;99.90
15341;DHT22;7770;52.158;5.372;2023-04-03T00:49:00;3.40;99.90
15341;DHT22;7770;52.158;5.372;2023-04-03T00:51:46;3.30;99.90
15341;DHT22;7770;52.158;5.372;2023-04-03T00:54:33;3.30;99.90
15341;DHT22;7770;52.158;5.372;2023-04-03T00:57:22;3.40;99.90
15341;DHT22;7770;52.158;5.372;2023-04-03T01:00:11;3.40;99.90
15341;DHT22;7770;52.158;5.372;2023-04-03T01:03:00;3.30;99.90
15341;DHT22;7770;52.158;5.372;2023-04-03T01:05:46;3.30;99.90
15341;DHT22;7770;52.158;5.372;2023-04-03T01:08:32;3.30;99.90
15341;DHT22;7770;52.158;5.372;2023-04-03T01:11:18;3.30;99.90
15341;DHT22;7770;52.158;5.372;2023-04-03T01:14:06;3.30;99.90
15341;DHT22;7770;52.158;5.372;2023-04-03T01:16:53;3.30;99.90
15341;DHT22;7770;52.158;5.372;2023-04-03T01:19:41;3.30;99.90
15341;DHT22;7770;52.158;5.372;2023-04-03T01:22:35;3.20;99.90
15341;DHT22;7770;52.158;5.372;2023-04-03T01:25:30;3.20;99.90
15341;DHT22;7770;52.158;5.372;2023-04-03T01:28:25;3.20;99.90
15341;DHT22;7770;52.158;5.372;2023-04-03T01:34:36;3.10;99.90
15341;DHT22;7770;52.158;5.372;2023-04-03T01:37:22;3.10;99.90
15341;DHT22;7770;52.158;5.372;2023-04-03T01:40:08;3.10;99.90
15341;DHT22;7770;52.158;5.372;2023-04-03T01:42:54;3.10;99.90
15341;DHT22;7770;52.158;5.372;2023-04-03T01:45:40;3.00;99.90
15341;DHT22;7770;52.158;5.372;2023-04-03T01:48:26;3.00;99.90
15341;DHT22;7770;52.158;5.372;2023-04-03T01:51:12;3.00;99.90
15341;DHT22;7770;52.158;5.372;2023-04-03T01:53:59;3.00;99.90
15341;DHT22;7770;52.158;5.372;2023-04-03T01:56:45;3.00;99.90
15341;DHT22;7770;52.158;5.372;2023-04-03T01:59:31;3.00;99.90
15341;DHT22;7770;52.158;5.372;2023-04-03T02:02:17;2.90;99.90
15341;DHT22;7770;52.158;5.372;2023-04-03T02:05:04;2.90;99.90
15341;DHT22;7770;52.158;5.372;2023-04-03T02:07:51;2.80;99.90
15341;DHT22;7770;52.158;5.372;2023-04-03T02:10:37;2.80;99.90
15341;DHT22;7770;52.158;5.372;2023-04-03T02:13:23;2.80;99.90
15341;DHT22;7770;52.158;5.372;2023-04-03T02:16:09;2.80;99.90
15341;DHT22;7770;52.158;5.372;2023-04-03T02:18:56;2.70;99.90
15341;DHT22;7770;52.158;5.372;2023-04-03T02:21:42;2.80;99.90
15341;DHT22;7770;52.158;5.372;2023-04-03T02:24:28;2.70;99.90
15341;DHT22;7770;52.158;5.372;2023-04-03T02:27:15;2.70;99.90
15341;DHT22;7770;52.158;5.372;2023-04-03T02:30:02;2.70;99.90
15341;DHT22;7770;52.158;5.372;2023-04-03T02:32:49;2.60;99.90
15341;DHT22;7770;52.158;5.372;2023-04-03T02:35:35;2.60;99.90
15341;DHT22;7770;52.158;5.372;2023-04-03T02:38:23;2.60;99.90
15341;DHT22;7770;52.158;5.372;2023-04-03T02:41:11;2.50;99.90
15341;DHT22;7770;52.158;5.372;2023-04-03T02:43:58;2.50;99.90
15341;DHT22;7770;52.158;5.372;2023-04-03T02:46:44;2.50;99.90
15341;DHT22;7770;52.158;5.372;2023-04-03T02:49:30;2.40;99.90
15341;DHT22;7770;52.158;5.372;2023-04-03T02:52:17;2.40;99.90
15341;DHT22;7770;52.158;5.372;2023-04-03T02:55:03;2.30;99.90
15341;DHT22;7770;52.158;5.372;2023-04-03T02:57:49;2.30;99.90
15341;DHT22;7770;52.158;5.372;2023-04-03T03:00:35;2.30;99.90
15341;DHT22;7770;52.158;5.372;2023-04-03T03:03:21;2.30;99.90
15341;DHT22;7770;52.158;5.372;2023-04-03T03:06:11;2.30;99.90
15341;DHT22;7770;52.158;5.372;2023-04-03T03:08:58;2.30;99.90
15341;DHT22;7770;52.158;5.372;2023-04-03T03:11:44;2.20;99.90
15341;DHT22;7770;52.158;5.372;2023-04-03T03:14:30;2.20;99.90
15341;DHT22;7770;52.158;5.372;2023-04-03T03:17:17;2.20;99.90
15341;DHT22;7770;52.158;5.372;2023-04-03T03:20:04;2.20;99.90
15341;DHT22;7770;52.158;5.372;2023-04-03T03:22:51;2.20;99.90
15341;DHT22;7770;52.158;5.372;2023-04-03T03:25:40;2.20;99.90
15341;DHT22;7770;52.158;5.372;2023-04-03T03:28:26;2.20;99.90
15341;DHT22;7770;52.158;5.372;2023-04-03T03:31:12;2.20;99.90
15341;DHT22;7770;52.158;5.372;2023-04-03T03:33:59;2.10;99.90
15341;DHT22;7770;52.158;5.372;2023-04-03T03:36:45;2.10;99.90
15341;DHT22;7770;52.158;5.372;2023-04-03T03:39:31;2.10;99.90
15341;DHT22;7770;52.158;5.372;2023-04-03T03:42:17;2.10;99.90
15341;DHT22;7770;52.158;5.372;2023-04-03T03:45:03;2.10;99.90
15341;DHT22;7770;52.158;5.372;2023-04-03T03:47:49;2.10;99.90
15341;DHT22;7770;52.158;5.372;2023-04-03T03:50:35;2.10;99.90
15341;DHT22;7770;52.158;5.372;2023-04-03T03:53:21;2.00;99.90
15341;DHT22;7770;52.158;5.372;2023-04-03T03:56:07;2.00;99.90
15341;DHT22;7770;52.158;5.372;2023-04-03T03:58:53;1.90;99.90
15341;DHT22;7770;52.158;5.372;2023-04-03T04:01:41;2.00;99.90
15341;DHT22;7770;52.158;5.372;2023-04-03T04:04:27;2.00;99.90
15341;DHT22;7770;52.158;5.372;2023-04-03T04:07:13;2.00;99.90
15341;DHT22;7770;52.158;5.372;2023-04-03T04:10:00;1.90;99.90
15341;DHT22;7770;52.158;5.372;2023-04-03T04:12:46;1.90;99.90
15341;DHT22;7770;52.158;5.372;2023-04-03T04:15:34;1.80;99.90
15341;DHT22;7770;52.158;5.372;2023-04-03T04:18:20;1.90;99.90
15341;DHT22;7770;52.158;5.372;2023-04-03T04:21:08;1.80;99.90
15341;DHT22;7770;52.158;5.372;2023-04-03T04:23:54;1.80;99.90
15341;DHT22;7770;52.158;5.372;2023-04-03T04:26:40;1.80;99.90
15341;DHT22;7770;52.158;5.372;2023-04-03T04:29:26;1.80;99.90
15341;DHT22;7770;52.158;5.372;2023-04-03T04:32:12;1.80;99.90
15341;DHT22;7770;52.158;5.372;2023-04-03T04:34:58;1.80;99.90
15341;DHT22;7770;52.158;5.372;2023-04-03T04:37:44;1.70;99.90
15341;DHT22;7770;52.158;5.372;2023-04-03T04:40:30;1.70;99.90
15341;DHT22;7770;52.158;5.372;2023-04-03T04:43:16;1.70;99.90
15341;DHT22;7770;52.158;5.372;2023-04-03T04:46:05;1.60;99.90
15341;DHT22;7770;52.158;5.372;2023-04-03T04:48:52;1.60;99.90
15341;DHT22;7770;52.158;5.372;2023-04-03T04:51:38;1.60;99.90
15341;DHT22;7770;52.158;5.372;2023-04-03T04:54:24;1.60;99.90
15341;DHT22;7770;52.158;5.372;2023-04-03T04:57:10;1.60;99.90
15341;DHT22;7770;52.158;5.372;2023-04-03T04:59:56;1.60;99.90
15341;DHT22;7770;52.158;5.372;2023-04-03T05:02:42;1.60;99.90
15341;DHT22;7770;52.158;5.372;2023-04-03T05:05:29;1.60;99.90
15341;DHT22;7770;52.158;5.372;2023-04-03T05:08:15;1.60;99.90
15341;DHT22;7770;52.158;5.372;2023-04-03T05:11:01;1.60;99.90
15341;DHT22;7770;52.158;5.372;2023-04-03T05:13:46;1.60;99.90
15341;DHT22;7770;52.158;5.372;2023-04-03T05:16:33;1.60;99.90
15341;DHT22;7770;52.158;5.372;2023-04-03T05:19:20;1.60;99.90
15341;DHT22;7770;52.158;5.372;2023-04-03T05:22:06;1.60;99.90
15341;DHT22;7770;52.158;5.372;2023-04-03T05:24:52;1.60;99.90
15341;DHT22;7770;52.158;5.372;2023-04-03T05:27:38;1.70;99.90
15341;DHT22;7770;52.158;5.372;2023-04-03T05:30:24;1.70;99.90
15341;DHT22;7770;52.158;5.372;2023-04-03T05:33:10;1.60;99.90
15341;DHT22;7770;52.158;5.372;2023-04-03T05:36:02;1.60;99.90
15341;DHT22;7770;52.158;5.372;2023-04-03T05:38:50;1.70;99.90
15341;DHT22;7770;52.158;5.372;2023-04-03T05:41:36;1.60;99.90
15341;DHT22;7770;52.158;5.372;2023-04-03T05:44:22;1.60;99.90
15341;DHT22;7770;52.158;5.372;2023-04-03T05:47:08;1.70;99.90
15341;DHT22;7770;52.158;5.372;2023-04-03T05:49:54;1.70;99.90
15341;DHT22;7770;52.158;5.372;2023-04-03T05:52:43;1.70;99.90
15341;DHT22;7770;52.158;5.372;2023-04-03T05:55:30;1.70;99.90
15341;DHT22;7770;52.158;5.372;2023-04-03T05:58:16;1.80;99.90
15341;DHT22;7770;52.158;5.372;2023-04-03T06:01:02;1.90;99.90
15341;DHT22;7770;52.158;5.372;2023-04-03T06:03:48;2.50;99.90
15341;DHT22;7770;52.158;5.372;2023-04-03T06:06:48;3.40;99.90
15341;DHT22;7770;52.158;5.372;2023-04-03T06:09:37;4.00;99.90
15341;DHT22;7770;52.158;5.372;2023-04-03T06:12:23;4.20;99.90
15341;DHT22;7770;52.158;5.372;2023-04-03T06:15:09;3.60;99.90
15341;DHT22;7770;52.158;5.372;2023-04-03T06:17:55;3.30;99.90
15341;DHT22;7770;52.158;5.372;2023-04-03T06:20:41;3.50;99.90
15341;DHT22;7770;52.158;5.372;2023-04-03T06:23:27;3.80;99.90
15341;DHT22;7770;52.158;5.372;2023-04-03T06:26:13;3.80;99.90
15341;DHT22;7770;52.158;5.372;2023-04-03T06:29:00;3.70;99.90
15341;DHT22;7770;52.158;5.372;2023-04-03T06:31:48;3.70;99.90
15341;DHT22;7770;52.158;5.372;2023-04-03T06:34:34;3.70;99.90
15341;DHT22;7770;52.158;5.372;2023-04-03T06:37:22;4.10;99.90
15341;DHT22;7770;52.158;5.372;2023-04-03T06:40:15;4.80;99.90
15341;DHT22;7770;52.158;5.372;2023-04-03T06:43:06;4.60;99.90
15341;DHT22;7770;52.158;5.372;2023-04-03T06:45:53;4.70;99.90
15341;DHT22;7770;52.158;5.372;2023-04-03T06:48:39;4.60;99.90
15341;DHT22;7770;52.158;5.372;2023-04-03T06:51:27;5.00;99.90
15341;DHT22;7770;52.158;5.372;2023-04-03T06:54:14;5.60;99.90
15341;DHT22;7770;52.158;5.372;2023-04-03T06:57:00;6.00;99.90
15341;DHT22;7770;52.158;5.372;2023-04-03T06:59:46;5.60;99.90
15341;DHT22;7770;52.158;5.372;2023-04-03T07:02:33;5.50;99.90
15341;DHT22;7770;52.158;5.372;2023-04-03T07:05:19;5.10;99.90
15341;DHT22;7770;52.158;5.372;2023-04-03T07:08:05;5.60;99.90
15341;DHT22;7770;52.158;5.372;2023-04-03T07:10:51;6.40;99.90
15341;DHT22;7770;52.158;5.372;2023-04-03T07:13:38;6.00;99.90
15341;DHT22;7770;52.158;5.372;2023-04-03T07:16:24;6.00;99.90
15341;DHT22;7770;52.158;5.372;2023-04-03T07:19:10;5.60;99.90
15341;DHT22;7770;52.158;5.372;2023-04-03T07:21:57;6.20;99.90
15341;DHT22;7770;52.158;5.372;2023-04-03T07:24:43;7.00;99.90
15341;DHT22;7770;52.158;5.372;2023-04-03T07:27:30;7.40;99.90
15341;DHT22;7770;52.158;5.372;2023-04-03T07:30:17;7.60;99.90
15341;DHT22;7770;52.158;5.372;2023-04-03T07:33:03;6.90;99.90
15341;DHT22;7770;52.158;5.372;2023-04-03T07:35:49;6.60;99.90
15341;DHT22;7770;52.158;5.372;2023-04-03T07:38:36;6.90;99.90
15341;DHT22;7770;52.158;5.372;2023-04-03T07:41:22;7.00;99.90
15341;DHT22;7770;52.158;5.372;2023-04-03T07:44:08;7.00;99.90
15341;DHT22;7770;52.158;5.372;2023-04-03T07:46:55;7.70;99.90
15341;DHT22;7770;52.158;5.372;2023-04-03T07:49:41;7.40;99.90
15341;DHT22;7770;52.158;5.372;2023-04-03T07:52:27;7.30;99.90
15341;DHT22;7770;52.158;5.372;2023-04-03T07:55:14;6.80;99.90
15341;DHT22;7770;52.158;5.372;2023-04-03T07:58:01;7.40;99.90
15341;DHT22;7770;52.158;5.372;2023-04-03T08:00:47;7.20;99.90
15341;DHT22;7770;52.158;5.372;2023-04-03T08:03:33;7.20;99.90
15341;DHT22;7770;52.158;5.372;2023-04-03T08:06:20;7.50;99.90
15341;DHT22;7770;52.158;5.372;2023-04-03T08:09:06;7.00;99.90
15341;DHT22;7770;52.158;5.372;2023-04-03T08:11:52;7.60;99.90
15341;DHT22;7770;52.158;5.372;2023-04-03T08:14:39;7.50;98.90
15341;DHT22;7770;52.158;5.372;2023-04-03T08:17:25;7.80;99.70
15341;DHT22;7770;52.158;5.372;2023-04-03T08:20:11;8.70;97.60
15341;DHT22;7770;52.158;5.372;2023-04-03T08:22:58;9.30;96.60
15341;DHT22;7770;52.158;5.372;2023-04-03T08:25:44;9.80;95.50
15341;DHT22;7770;52.158;5.372;2023-04-03T08:28:30;10.40;94.70
15341;DHT22;7770;52.158;5.372;2023-04-03T08:31:18;11.40;92.20
15341;DHT22;7770;52.158;5.372;2023-04-03T08:34:05;11.10;91.90
15341;DHT22;7770;52.158;5.372;2023-04-03T08:36:51;11.20;91.60
15341;DHT22;7770;52.158;5.372;2023-04-03T08:39:37;11.70;91.20
15341;DHT22;7770;52.158;5.372;2023-04-03T08:42:50;10.30;90.30
15341;DHT22;7770;52.158;5.372;2023-04-03T08:45:48;10.20;91.80
15341;DHT22;7770;52.158;5.372;2023-04-03T08:48:41;10.60;91.50
15341;DHT22;7770;52.158;5.372;2023-04-03T08:51:29;12.30;89.60
15341;DHT22;7770;52.158;5.372;2023-04-03T08:54:25;12.60;87.50
15341;DHT22;7770;52.158;5.372;2023-04-03T08:57:14;12.50;87.00
15341;DHT22;7770;52.158;5.372;2023-04-03T09:00:14;13.10;83.60
15341;DHT22;7770;52.158;5.372;2023-04-03T09:03:01;12.70;82.60
15341;DHT22;7770;52.158;5.372;2023-04-03T09:06:00;12.60;81.80
15341;DHT22;7770;52.158;5.372;2023-04-03T09:09:15;12.20;82.90
15341;DHT22;7770;52.158;5.372;2023-04-03T09:12:32;13.40;78.30
15341;DHT22;7770;52.158;5.372;2023-04-03T09:15:22;14.10;77.90
15341;DHT22;7770;52.158;5.372;2023-04-03T09:18:38;15.10;75.20
15341;DHT22;7770;52.158;5.372;2023-04-03T09:21:39;13.70;73.90
15341;DHT22;7770;52.158;5.372;2023-04-03T09:24:28;14.60;72.60
15341;DHT22;7770;52.158;5.372;2023-04-03T09:27:14;13.90;71.90
15341;DHT22;7770;52.158;5.372;2023-04-03T09:30:00;13.00;70.80
15341;DHT22;7770;52.158;5.372;2023-04-03T09:32:48;12.70;71.60
15341;DHT22;7770;52.158;5.372;2023-04-03T09:35:37;12.80;72.00
15341;DHT22;7770;52.158;5.372;2023-04-03T09:38:23;12.90;72.40
15341;DHT22;7770;52.158;5.372;2023-04-03T09:41:15;12.80;72.50
15341;DHT22;7770;52.158;5.372;2023-04-03T09:44:04;13.90;70.80
15341;DHT22;7770;52.158;5.372;2023-04-03T09:50:22;13.70;69.30
15341;DHT22;7770;52.158;5.372;2023-04-03T09:53:30;13.20;70.60
15341;DHT22;7770;52.158;5.372;2023-04-03T10:02:18;12.80;69.20
15341;DHT22;7770;52.158;5.372;2023-04-03T10:11:16;12.30;67.70
15341;DHT22;7770;52.158;5.372;2023-04-03T10:14:04;13.50;67.00
15341;DHT22;7770;52.158;5.372;2023-04-03T10:17:01;13.50;68.20
15341;DHT22;7770;52.158;5.372;2023-04-03T10:20:06;13.20;67.80
15341;DHT22;7770;52.158;5.372;2023-04-03T10:23:21;13.90;67.90
15341;DHT22;7770;52.158;5.372;2023-04-03T10:26:35;12.60;68.20
15341;DHT22;7770;52.158;5.372;2023-04-03T10:29:46;13.50;68.10
15341;DHT22;7770;52.158;5.372;2023-04-03T10:35:44;13.00;68.50
15341;DHT22;7770;52.158;5.372;2023-04-03T10:52:11;13.50;68.70
15341;DHT22;7770;52.158;5.372;2023-04-03T10:55:31;14.00;66.40
15341;DHT22;7770;52.158;5.372;2023-04-03T10:58:33;15.00;66.70
15341;DHT22;7770;52.158;5.372;2023-04-03T11:01:26;13.90;66.30
15341;DHT22;7770;52.158;5.372;2023-04-03T11:04:17;12.80;66.90
15341;DHT22;7770;52.158;5.372;2023-04-03T11:07:11;13.00;69.60
15341;DHT22;7770;52.158;5.372;2023-04-03T11:10:41;12.80;68.00
15341;DHT22;7770;52.158;5.372;2023-04-03T11:13:52;12.70;70.10
15341;DHT22;7770;52.158;5.372;2023-04-03T11:16:45;13.90;68.60
15341;DHT22;7770;52.158;5.372;2023-04-03T11:22:57;13.60;69.40
15341;DHT22;7770;52.158;5.372;2023-04-03T11:29:06;13.70;70.60
15341;DHT22;7770;52.158;5.372;2023-04-03T11:35:27;12.70;71.40
15341;DHT22;7770;52.158;5.372;2023-04-03T11:38:19;13.10;69.90
15341;DHT22;7770;52.158;5.372;2023-04-03T11:41:09;13.00;70.60
15341;DHT22;7770;52.158;5.372;2023-04-03T11:44:28;13.20;70.70
15341;DHT22;7770;52.158;5.372;2023-04-03T11:47:44;12.10;73.40
15341;DHT22;7770;52.158;5.372;2023-04-03T12:01:58;12.90;73.30
15341;DHT22;7770;52.158;5.372;2023-04-03T12:05:23;13.00;72.70
15341;DHT22;7770;52.158;5.372;2023-04-03T12:11:32;12.60;72.80
15341;DHT22;7770;52.158;5.372;2023-04-03T12:14:27;12.80;73.60
15341;DHT22;7770;52.158;5.372;2023-04-03T12:17:26;12.40;73.60
15341;DHT22;7770;52.158;5.372;2023-04-03T12:23:35;11.00;75.60
15341;DHT22;7770;52.158;5.372;2023-04-03T12:26:27;11.20;76.40
15341;DHT22;7770;52.158;5.372;2023-04-03T12:41:41;10.60;77.00
15341;DHT22;7770;52.158;5.372;2023-04-03T12:48:16;10.20;78.80
15341;DHT22;7770;52.158;5.372;2023-04-03T12:51:03;10.60;79.60
15341;DHT22;7770;52.158;5.372;2023-04-03T12:53:53;10.70;77.60
15341;DHT22;7770;52.158;5.372;2023-04-03T12:56:43;10.30;77.80
15341;DHT22;7770;52.158;5.372;2023-04-03T12:59:29;10.10;77.10
15341;DHT22;7770;52.158;5.372;2023-04-03T13:02:24;10.20;78.00
15341;DHT22;7770;52.158;5.372;2023-04-03T13:05:17;10.40;78.00
15341;DHT22;7770;52.158;5.372;2023-04-03T13:08:12;10.10;77.70
15341;DHT22;7770;52.158;5.372;2023-04-03T13:11:04;9.80;78.50
15341;DHT22;7770;52.158;5.372;2023-04-03T13:14:03;9.90;79.10
15341;DHT22;7770;52.158;5.372;2023-04-03T13:16:54;9.90;78.60
15341;DHT22;7770;52.158;5.372;2023-04-03T13:19:43;10.10;79.80
15341;DHT22;7770;52.158;5.372;2023-04-03T13:22:35;10.00;80.60
15341;DHT22;7770;52.158;5.372;2023-04-03T13:25:27;9.90;78.80
15341;DHT22;7770;52.158;5.372;2023-04-03T13:28:22;9.60;78.00
15341;DHT22;7770;52.158;5.372;2023-04-03T13:34:19;9.90;81.40
15341;DHT22;7770;52.158;5.372;2023-04-03T13:37:11;9.50;79.40
15341;DHT22;7770;52.158;5.372;2023-04-03T13:43:14;9.90;80.60
15341;DHT22;7770;52.158;5.372;2023-04-03T13:48:56;10.10;80.10
15341;DHT22;7770;52.158;5.372;2023-04-03T13:51:42;10.10;81.50
15341;DHT22;7770;52.158;5.372;2023-04-03T13:54:35;10.00;80.80
15341;DHT22;7770;52.158;5.372;2023-04-03T13:57:23;9.90;81.40
15341;DHT22;7770;52.158;5.372;2023-04-03T14:00:36;9.90;81.50
15341;DHT22;7770;52.158;5.372;2023-04-03T14:03:33;9.80;82.30
15341;DHT22;7770;52.158;5.372;2023-04-03T14:06:26;9.70;80.70
15341;DHT22;7770;52.158;5.372;2023-04-03T14:09:13;9.70;81.40
15341;DHT22;7770;52.158;5.372;2023-04-03T14:12:06;9.80;81.70
15341;DHT22;7770;52.158;5.372;2023-04-03T14:14:54;9.50;81.30
15341;DHT22;7770;52.158;5.372;2023-04-03T14:17:41;9.50;81.90
15341;DHT22;7770;52.158;5.372;2023-04-03T14:20:27;9.60;82.70
15341;DHT22;7770;52.158;5.372;2023-04-03T14:23:14;9.80;81.90
15341;DHT22;7770;52.158;5.372;2023-04-03T14:26:00;9.70;82.20
15341;DHT22;7770;52.158;5.372;2023-04-03T14:28:50;9.60;82.80
15341;DHT22;7770;52.158;5.372;2023-04-03T14:31:40;9.70;82.00
15341;DHT22;7770;52.158;5.372;2023-04-03T14:34:26;9.60;81.50
15341;DHT22;7770;52.158;5.372;2023-04-03T14:37:16;9.30;82.00
15341;DHT22;7770;52.158;5.372;2023-04-03T14:40:07;9.60;83.50
15341;DHT22;7770;52.158;5.372;2023-04-03T14:42:54;9.60;82.00
15341;DHT22;7770;52.158;5.372;2023-04-03T14:45:42;9.60;82.80
15341;DHT22;7770;52.158;5.372;2023-04-03T14:48:29;9.70;83.20
15341;DHT22;7770;52.158;5.372;2023-04-03T14:51:16;9.70;82.80
15341;DHT22;7770;52.158;5.372;2023-04-03T14:54:02;9.70;83.40
15341;DHT22;7770;52.158;5.372;2023-04-03T14:56:48;9.80;83.10
15341;DHT22;7770;52.158;5.372;2023-04-03T14:59:34;9.90;84.30
15341;DHT22;7770;52.158;5.372;2023-04-03T15:05:16;9.80;84.00
15341;DHT22;7770;52.158;5.372;2023-04-03T15:08:03;9.80;83.70
15341;DHT22;7770;52.158;5.372;2023-04-03T15:10:50;9.70;83.50
15341;DHT22;7770;52.158;5.372;2023-04-03T15:13:38;9.70;84.60
15341;DHT22;7770;52.158;5.372;2023-04-03T15:16:25;9.80;85.00
15341;DHT22;7770;52.158;5.372;2023-04-03T15:19:12;9.80;85.60
15341;DHT22;7770;52.158;5.372;2023-04-03T15:21:58;9.70;84.80
15341;DHT22;7770;52.158;5.372;2023-04-03T15:24:44;9.50;83.90
15341;DHT22;7770;52.158;5.372;2023-04-03T15:27:30;9.50;85.40
15341;DHT22;7770;52.158;5.372;2023-04-03T15:30:18;9.50;84.60
15341;DHT22;7770;52.158;5.372;2023-04-03T15:33:05;9.60;85.10
15341;DHT22;7770;52.158;5.372;2023-04-03T15:35:51;9.40;84.40
15341;DHT22;7770;52.158;5.372;2023-04-03T15:38:38;9.50;85.80
15341;DHT22;7770;52.158;5.372;2023-04-03T15:41:24;9.30;85.50
15341;DHT22;7770;52.158;5.372;2023-04-03T15:44:10;9.20;86.40
15341;DHT22;7770;52.158;5.372;2023-04-03T15:46:58;9.40;88.00
15341;DHT22;7770;52.158;5.372;2023-04-03T15:49:44;9.40;87.80
15341;DHT22;7770;52.158;5.372;2023-04-03T15:52:30;9.50;88.30
15341;DHT22;7770;52.158;5.372;2023-04-03T15:55:16;9.60;87.90
15341;DHT22;7770;52.158;5.372;2023-04-03T15:58:02;9.30;88.40
15341;DHT22;7770;52.158;5.372;2023-04-03T16:00:49;9.60;90.20
15341;DHT22;7770;52.158;5.372;2023-04-03T16:03:35;9.50;90.00
15341;DHT22;7770;52.158;5.372;2023-04-03T16:06:21;9.50;89.30
15341;DHT22;7770;52.158;5.372;2023-04-03T16:09:08;9.50;89.10
15341;DHT22;7770;52.158;5.372;2023-04-03T16:11:54;9.20;89.80
15341;DHT22;7770;52.158;5.372;2023-04-03T16:14:41;9.30;89.80
15341;DHT22;7770;52.158;5.372;2023-04-03T16:17:27;9.20;89.50
15341;DHT22;7770;52.158;5.372;2023-04-03T16:20:14;9.20;90.00
15341;DHT22;7770;52.158;5.372;2023-04-03T16:23:01;9.10;90.30
15341;DHT22;7770;52.158;5.372;2023-04-03T16:25:47;9.00;90.10
15341;DHT22;7770;52.158;5.372;2023-04-03T16:28:33;9.00;90.20
15341;DHT22;7770;52.158;5.372;2023-04-03T16:31:20;9.10;90.40
15341;DHT22;7770;52.158;5.372;2023-04-03T16:34:06;8.90;90.40
15341;DHT22;7770;52.158;5.372;2023-04-03T16:36:52;9.00;90.40
15341;DHT22;7770;52.158;5.372;2023-04-03T16:39:38;8.90;90.50
15341;DHT22;7770;52.158;5.372;2023-04-03T16:42:25;8.80;90.60
15341;DHT22;7770;52.158;5.372;2023-04-03T16:45:11;8.80;90.40
15341;DHT22;7770;52.158;5.372;2023-04-03T16:47:57;8.60;90.20
15341;DHT22;7770;52.158;5.372;2023-04-03T16:50:46;8.60;90.10
15341;DHT22;7770;52.158;5.372;2023-04-03T16:53:34;8.60;90.40
15341;DHT22;7770;52.158;5.372;2023-04-03T16:56:21;8.60;90.50
15341;DHT22;7770;52.158;5.372;2023-04-03T16:59:07;8.60;90.70
15341;DHT22;7770;52.158;5.372;2023-04-03T17:01:53;8.50;90.30
15341;DHT22;7770;52.158;5.372;2023-04-03T17:04:39;8.50;90.30
15341;DHT22;7770;52.158;5.372;2023-04-03T17:07:26;8.50;90.20
15341;DHT22;7770;52.158;5.372;2023-04-03T17:10:12;8.40;90.30
15341;DHT22;7770;52.158;5.372;2023-04-03T17:12:58;8.40;90.30
15341;DHT22;7770;52.158;5.372;2023-04-03T17:15:44;8.40;90.60
15341;DHT22;7770;52.158;5.372;2023-04-03T17:18:31;8.40;90.80
15341;DHT22;7770;52.158;5.372;2023-04-03T17:21:18;8.40;91.00
15341;DHT22;7770;52.158;5.372;2023-04-03T17:24:05;8.30;91.00
15341;DHT22;7770;52.158;5.372;2023-04-03T17:26:53;8.20;91.30
15341;DHT22;7770;52.158;5.372;2023-04-03T17:29:40;8.20;91.60
15341;DHT22;7770;52.158;5.372;2023-04-03T17:32:26;8.20;91.70
15341;DHT22;7770;52.158;5.372;2023-04-03T17:35:12;8.20;91.80
15341;DHT22;7770;52.158;5.372;2023-04-03T17:37:57;8.10;92.00
15341;DHT22;7770;52.158;5.372;2023-04-03T17:40:44;8.10;92.20
15341;DHT22;7770;52.158;5.372;2023-04-03T17:43:30;8.00;92.30
15341;DHT22;7770;52.158;5.372;2023-04-03T17:46:17;8.00;92.60
15341;DHT22;7770;52.158;5.372;2023-04-03T17:49:03;8.00;92.80
15341;DHT22;7770;52.158;5.372;2023-04-03T17:51:49;7.90;92.50
15341;DHT22;7770;52.158;5.372;2023-04-03T17:54:35;7.90;92.70
15341;DHT22;7770;52.158;5.372;2023-04-03T17:57:21;7.80;92.70
15341;DHT22;7770;52.158;5.372;2023-04-03T18:00:08;7.80;92.70
15341;DHT22;7770;52.158;5.372;2023-04-03T18:02:55;7.70;92.70
15341;DHT22;7770;52.158;5.372;2023-04-03T18:05:41;7.70;92.90
15341;DHT22;7770;52.158;5.372;2023-04-03T18:08:27;7.60;92.70
15341;DHT22;7770;52.158;5.372;2023-04-03T18:11:14;7.60;93.10
15341;DHT22;7770;52.158;5.372;2023-04-03T18:14:02;7.50;93.00
15341;DHT22;7770;52.158;5.372;2023-04-03T18:16:50;7.50;93.10
15341;DHT22;7770;52.158;5.372;2023-04-03T18:19:37;7.40;93.30
15341;DHT22;7770;52.158;5.372;2023-04-03T18:22:23;7.30;93.60
15341;DHT22;7770;52.158;5.372;2023-04-03T18:25:09;7.30;93.70
15341;DHT22;7770;52.158;5.372;2023-04-03T18:27:56;7.20;93.60
15341;DHT22;7770;52.158;5.372;2023-04-03T18:30:44;7.10;93.90
15341;DHT22;7770;52.158;5.372;2023-04-03T18:33:30;7.10;93.80
15341;DHT22;7770;52.158;5.372;2023-04-03T18:36:16;7.10;93.90
15341;DHT22;7770;52.158;5.372;2023-04-03T18:39:03;7.00;93.80
15341;DHT22;7770;52.158;5.372;2023-04-03T18:41:49;7.00;94.00
15341;DHT22;7770;52.158;5.372;2023-04-03T18:44:36;6.90;94.20
15341;DHT22;7770;52.158;5.372;2023-04-03T18:47:22;6.90;94.30
15341;DHT22;7770;52.158;5.372;2023-04-03T18:50:09;6.90;94.30
15341;DHT22;7770;52.158;5.372;2023-04-03T18:52:55;6.80;94.80
15341;DHT22;7770;52.158;5.372;2023-04-03T18:55:41;6.70;94.80
15341;DHT22;7770;52.158;5.372;2023-04-03T18:58:27;6.60;95.10
15341;DHT22;7770;52.158;5.372;2023-04-03T19:01:14;6.60;95.30
15341;DHT22;7770;52.158;5.372;2023-04-03T19:04:00;6.50;95.80
15341;DHT22;7770;52.158;5.372;2023-04-03T19:06:46;6.40;95.90
15341;DHT22;7770;52.158;5.372;2023-04-03T19:09:33;6.50;95.60
15341;DHT22;7770;52.158;5.372;2023-04-03T19:12:19;6.50;95.70
15341;DHT22;7770;52.158;5.372;2023-04-03T19:15:06;6.50;95.70
15341;DHT22;7770;52.158;5.372;2023-04-03T19:17:52;6.40;96.10
15341;DHT22;7770;52.158;5.372;2023-04-03T19:20:38;6.40;96.10
15341;DHT22;7770;52.158;5.372;2023-04-03T19:23:24;6.30;96.10
15341;DHT22;7770;52.158;5.372;2023-04-03T19:26:12;6.20;96.40
15341;DHT22;7770;52.158;5.372;2023-04-03T19:28:58;6.20;96.50
15341;DHT22;7770;52.158;5.372;2023-04-03T19:31:44;6.10;96.50
15341;DHT22;7770;52.158;5.372;2023-04-03T19:34:30;6.10;96.40
15341;DHT22;7770;52.158;5.372;2023-04-03T19:37:16;6.00;96.70
15341;DHT22;7770;52.158;5.372;2023-04-03T19:40:03;6.00;96.70
15341;DHT22;7770;52.158;5.372;2023-04-03T19:42:51;5.90;97.00
15341;DHT22;7770;52.158;5.372;2023-04-03T19:45:37;5.80;97.20
15341;DHT22;7770;52.158;5.372;2023-04-03T19:48:24;5.80;97.40
15341;DHT22;7770;52.158;5.372;2023-04-03T19:51:10;5.90;96.90